createdAt,value
2018-07-01T00:01:07.610Z,62.23
2018-07-01T00:03:36.247Z,62.04
2018-07-01T00:06:05.179Z,61.97
2018-07-01T00:08:33.864Z,62.32
2018-07-01T00:11:02.527Z,62.55
2018-07-01T00:13:31.246Z,62.11
2018-07-01T00:15:59.932Z,62.09
2018-07-01T00:18:28.649Z,62.51
2018-07-01T00:20:57.329Z,62.67
2018-07-01T00:23:26.080Z,62.41
2018-07-01T00:25:54.772Z,62.65
2018-07-01T00:28:23.633Z,62.32
2018-07-01T00:30:52.269Z,63.42
2018-07-01T00:33:20.976Z,63.59
2018-07-01T00:35:49.645Z,63.71
2018-07-01T00:38:18.283Z,63.55
2018-07-01T00:40:46.979Z,63.82
2018-07-01T00:43:15.679Z,64.08
2018-07-01T00:45:44.489Z,64.84
2018-07-01T00:48:13.275Z,64.92
2018-07-01T00:50:41.966Z,65.06
2018-07-01T00:53:10.784Z,64.77
2018-07-01T00:55:39.455Z,64.41
2018-07-01T00:58:08.091Z,64.89
2018-07-01T01:00:36.810Z,65.38
2018-07-01T01:03:05.495Z,64.62
2018-07-01T01:05:34.160Z,64.53
2018-07-01T01:08:03.644Z,64.85
2018-07-01T01:10:32.263Z,64.42
2018-07-01T01:13:01.015Z,64.24
2018-07-01T01:15:29.719Z,64.14
2018-07-01T01:17:58.395Z,63.90
2018-07-01T01:20:27.079Z,63.66
2018-07-01T01:22:55.774Z,63.67
2018-07-01T01:25:24.431Z,63.59
2018-07-01T01:27:53.087Z,63.51
2018-07-01T01:30:21.837Z,63.76
2018-07-01T01:32:50.487Z,63.48
2018-07-01T01:35:19.174Z,62.96
2018-07-01T01:37:47.819Z,63.10
2018-07-01T01:40:18.917Z,62.51
2018-07-01T01:42:52.199Z,62.90
2018-07-01T01:45:31.062Z,62.80
2018-07-01T01:48:10.054Z,62.76
2018-07-01T01:50:45.752Z,62.27
2018-07-01T01:53:18.222Z,62.49
2018-07-01T01:56:22.783Z,62.08
2018-07-01T01:58:55.998Z,62.24
2018-07-01T02:01:35.979Z,62.61
2018-07-01T02:04:10.222Z,62.59
2018-07-01T02:06:41.776Z,62.30
2018-07-01T02:09:13.585Z,63.23
2018-07-01T02:11:44.853Z,63.69
2018-07-01T02:14:19.346Z,63.78
2018-07-01T02:16:52.875Z,63.58
2018-07-01T02:19:21.537Z,63.45
2018-07-01T02:21:51.094Z,64.15
2018-07-01T02:24:23.636Z,63.86
2018-07-01T02:26:52.327Z,64.09
2018-07-01T02:29:21.018Z,64.06
2018-07-01T02:31:49.799Z,63.77
2018-07-01T02:34:18.471Z,63.87
2018-07-01T02:36:47.538Z,63.87
2018-07-01T02:39:16.180Z,63.90
2018-07-01T02:41:44.851Z,64.00
2018-07-01T02:44:13.490Z,64.46
2018-07-01T02:46:43.113Z,64.61
2018-07-01T02:49:12.503Z,64.71
2018-07-01T02:51:41.164Z,64.51
2018-07-01T02:54:09.826Z,64.48
2018-07-01T02:56:38.534Z,65.55
2018-07-01T02:59:07.253Z,65.46
2018-07-01T03:01:35.906Z,65.37
2018-07-01T03:04:04.581Z,65.00
2018-07-01T03:06:33.250Z,64.45
2018-07-01T03:09:02.032Z,64.80
2018-07-01T03:11:30.690Z,64.28
2018-07-01T03:13:59.357Z,64.97
2018-07-01T03:16:28.130Z,64.43
2018-07-01T03:18:56.766Z,63.85
2018-07-01T03:21:25.439Z,63.85
2018-07-01T03:23:54.102Z,64.03
2018-07-01T03:26:22.779Z,64.26
2018-07-01T03:28:51.447Z,64.22
2018-07-01T03:34:20.039Z,63.86
2018-07-01T03:36:48.670Z,63.26
2018-07-01T03:39:17.636Z,63.87
2018-07-01T03:41:46.258Z,63.94
2018-07-01T03:44:14.939Z,63.14
2018-07-01T03:46:43.822Z,64.37
2018-07-01T03:49:13.505Z,64.28
2018-07-01T03:51:42.169Z,63.15
2018-07-01T03:54:10.801Z,62.61
2018-07-01T03:56:39.417Z,62.49
2018-07-01T03:59:08.531Z,62.25
2018-07-01T04:01:37.180Z,62.71
2018-07-01T04:04:05.899Z,62.55
2018-07-01T04:06:34.568Z,62.81
2018-07-01T04:09:03.242Z,62.87
2018-07-01T04:11:31.875Z,62.49
2018-07-01T04:14:00.523Z,61.95
2018-07-01T04:16:29.269Z,61.81
2018-07-01T04:18:57.938Z,61.92
2018-07-01T04:21:26.606Z,60.93
2018-07-01T04:23:55.305Z,61.31
2018-07-01T04:26:23.991Z,60.59
2018-07-01T04:28:52.694Z,60.36
2018-07-01T04:31:21.351Z,60.14
2018-07-01T04:33:50.462Z,59.62
2018-07-01T04:36:19.123Z,60.26
2018-07-01T04:38:47.778Z,59.43
2018-07-01T04:41:16.432Z,59.98
2018-07-01T04:43:45.207Z,59.74
2018-07-01T04:46:13.821Z,59.01
2018-07-01T04:48:42.725Z,59.14
2018-07-01T04:51:11.407Z,58.35
2018-07-01T04:53:40.047Z,59.13
2018-07-01T04:56:08.737Z,58.94
2018-07-01T04:58:37.455Z,58.40
2018-07-01T05:01:06.130Z,58.13
2018-07-01T05:03:34.799Z,58.15
2018-07-01T05:06:03.454Z,58.72
2018-07-01T05:08:32.162Z,57.97
2018-07-01T05:11:00.830Z,57.57
2018-07-01T05:13:29.471Z,57.63
2018-07-01T05:15:59.520Z,58.14
2018-07-01T05:18:28.179Z,58.14
2018-07-01T05:20:56.859Z,57.76
2018-07-01T05:23:25.546Z,57.61
2018-07-01T05:25:54.215Z,57.79
2018-07-01T05:28:22.843Z,58.21
2018-07-01T05:30:51.588Z,59.37
2018-07-01T05:33:20.236Z,57.78
2018-07-01T05:35:48.916Z,57.63
2018-07-01T05:38:17.607Z,57.49
2018-07-01T05:40:46.271Z,57.73
2018-07-01T05:43:15.036Z,57.92
2018-07-01T05:45:43.677Z,57.72
2018-07-01T05:48:12.845Z,58.33
2018-07-01T05:50:41.551Z,58.40
2018-07-01T05:53:10.235Z,58.82
2018-07-01T05:55:38.901Z,59.16
2018-07-01T05:58:08.232Z,58.27
2018-07-01T06:00:36.924Z,57.86
2018-07-01T06:03:05.694Z,58.52
2018-07-01T06:05:34.365Z,58.06
2018-07-01T06:08:03.070Z,57.79
2018-07-01T06:10:31.769Z,57.90
2018-07-01T06:13:00.477Z,57.37
2018-07-01T06:15:29.133Z,55.38
2018-07-01T06:17:57.819Z,55.32
2018-07-01T06:20:26.537Z,54.42
2018-07-01T06:22:55.206Z,53.64
2018-07-01T06:25:23.837Z,51.04
2018-07-01T06:27:52.538Z,49.23
2018-07-01T06:30:21.295Z,49.42
2018-07-01T06:32:50.006Z,49.58
2018-07-01T06:35:18.695Z,51.19
2018-07-01T06:37:47.385Z,46.08
2018-07-01T06:40:16.089Z,44.37
2018-07-01T06:42:44.760Z,43.53
2018-07-01T06:45:13.702Z,44.08
2018-07-01T06:47:42.558Z,43.60
2018-07-01T06:50:11.211Z,43.50
2018-07-01T06:52:39.931Z,43.76
2018-07-01T06:55:08.594Z,44.17
2018-07-01T06:57:37.356Z,43.83
2018-07-01T07:00:06.320Z,44.42
2018-07-01T07:02:35.249Z,52.29
2018-07-01T07:05:03.919Z,45.65
2018-07-01T07:07:32.599Z,44.21
2018-07-01T07:10:01.268Z,44.02
2018-07-01T07:12:29.980Z,40.69
2018-07-01T07:14:58.636Z,41.58
2018-07-01T07:17:27.360Z,39.44
2018-07-01T07:19:56.095Z,38.47
2018-07-01T07:22:24.767Z,36.54
2018-07-01T07:24:53.416Z,35.98
2018-07-01T07:27:22.140Z,36.58
2018-07-01T07:29:51.182Z,36.22
2018-07-01T07:32:19.869Z,35.12
2018-07-01T07:34:48.570Z,35.32
2018-07-01T07:37:17.194Z,35.00
2018-07-01T07:39:45.915Z,34.02
2018-07-01T07:42:14.612Z,34.24
2018-07-01T07:44:43.291Z,32.99
2018-07-01T07:47:11.937Z,32.81
2018-07-01T07:49:40.683Z,32.11
2018-07-01T07:52:09.555Z,33.49
2018-07-01T07:54:39.739Z,33.02
2018-07-01T07:57:08.462Z,32.44
2018-07-01T07:59:37.106Z,32.76
2018-07-01T08:02:05.781Z,31.67
2018-07-01T08:04:34.510Z,31.75
2018-07-01T08:07:03.195Z,31.75
2018-07-01T08:09:31.859Z,31.64
2018-07-01T08:12:00.538Z,32.25
2018-07-01T08:14:29.279Z,31.78
2018-07-01T08:16:57.937Z,32.66
2018-07-01T08:19:26.662Z,32.90
2018-07-01T08:21:55.328Z,34.71
2018-07-01T08:24:24.034Z,33.54
2018-07-01T08:26:52.680Z,33.84
2018-07-01T08:29:21.354Z,33.78
2018-07-01T08:31:50.028Z,33.55
2018-07-01T08:34:19.301Z,33.33
2018-07-01T08:36:47.980Z,33.04
2018-07-01T08:39:16.700Z,34.17
2018-07-01T08:41:56.269Z,34.01
2018-07-01T08:44:24.950Z,34.28
2018-07-01T08:46:53.602Z,33.48
2018-07-01T08:49:22.295Z,32.81
2018-07-01T08:51:50.947Z,32.77
2018-07-01T08:54:19.615Z,31.92
2018-07-01T08:56:48.251Z,30.69
2018-07-01T08:59:17.850Z,30.03
2018-07-01T09:01:46.544Z,30.98
2018-07-01T09:04:15.123Z,30.48
2018-07-01T09:06:43.770Z,31.53
2018-07-01T09:09:12.428Z,30.49
2018-07-01T09:11:41.199Z,30.71
2018-07-01T09:14:10.041Z,31.11
2018-07-01T09:16:38.680Z,30.72
2018-07-01T09:19:07.892Z,31.27
2018-07-01T09:21:36.587Z,34.62
2018-07-01T09:24:05.345Z,36.75
2018-07-01T09:26:33.963Z,37.03
2018-07-01T09:29:02.652Z,37.05
2018-07-01T09:31:31.345Z,36.83
2018-07-01T09:34:00.025Z,36.19
2018-07-01T09:36:28.696Z,36.68
2018-07-01T09:38:57.725Z,36.12
2018-07-01T09:41:26.552Z,35.41
2018-07-01T09:43:55.493Z,35.49
2018-07-01T09:46:24.246Z,35.75
2018-07-01T09:48:52.943Z,34.09
2018-07-01T09:51:22.593Z,32.07
2018-07-01T09:53:51.307Z,34.33
2018-07-01T09:56:19.990Z,33.46
2018-07-01T09:58:48.663Z,33.97
2018-07-01T10:01:17.361Z,33.00
2018-07-01T10:03:46.058Z,31.91
2018-07-01T10:06:14.684Z,33.73
2018-07-01T10:08:43.391Z,35.36
2018-07-01T10:11:12.088Z,32.16
2018-07-01T10:13:40.738Z,31.80
2018-07-01T10:16:09.395Z,30.66
2018-07-01T10:18:38.089Z,30.46
2018-07-01T10:21:06.938Z,29.45
2018-07-01T10:23:35.571Z,29.34
2018-07-01T10:26:04.291Z,29.95
2018-07-01T10:28:33.181Z,29.76
2018-07-01T10:31:02.150Z,32.01
2018-07-01T10:33:30.792Z,32.92
2018-07-01T10:35:59.499Z,32.44
2018-07-01T10:38:28.108Z,30.93
2018-07-01T10:40:57.171Z,31.02
2018-07-01T10:43:25.845Z,31.87
2018-07-01T10:45:54.554Z,32.31
2018-07-01T10:48:23.478Z,31.11
2018-07-01T10:50:52.160Z,32.04
2018-07-01T10:53:21.219Z,33.21
2018-07-01T10:55:49.850Z,33.87
2018-07-01T10:58:18.500Z,35.65
2018-07-01T11:00:47.170Z,34.36
2018-07-01T11:03:15.867Z,32.81
2018-07-01T11:05:44.519Z,30.75
2018-07-01T11:08:13.386Z,30.14
2018-07-01T11:10:42.031Z,31.33
2018-07-01T11:13:10.683Z,32.88
2018-07-01T11:15:39.364Z,32.60
2018-07-01T11:18:08.174Z,32.03
2018-07-01T11:20:37.621Z,32.62
2018-07-01T11:23:06.265Z,33.40
2018-07-01T11:25:34.921Z,34.10
2018-07-01T11:28:03.585Z,33.86
2018-07-01T11:30:32.231Z,33.36
2018-07-01T11:33:01.530Z,32.61
2018-07-01T11:35:30.442Z,32.91
2018-07-01T11:37:59.124Z,31.71
2018-07-01T11:40:27.816Z,33.43
2018-07-01T11:42:56.649Z,34.56
2018-07-01T11:45:25.287Z,34.29
2018-07-01T11:47:54.059Z,34.87
2018-07-01T11:50:23.159Z,35.68
2018-07-01T11:52:51.776Z,35.84
2018-07-01T11:55:20.489Z,36.74
2018-07-01T11:57:49.120Z,37.00
2018-07-01T12:00:17.765Z,36.77
2018-07-01T12:02:46.497Z,37.25
2018-07-01T12:05:17.096Z,35.00
2018-07-01T12:07:44.501Z,34.69
2018-07-01T12:10:13.193Z,32.97
2018-07-01T12:12:42.362Z,33.85
2018-07-01T12:15:10.996Z,34.10
2018-07-01T12:17:39.669Z,34.65
2018-07-01T12:20:08.327Z,35.37
2018-07-01T12:22:37.103Z,34.64
2018-07-01T12:25:06.052Z,34.17
2018-07-01T12:27:34.687Z,33.50
2018-07-01T12:30:03.392Z,33.94
2018-07-01T12:32:32.068Z,34.38
2018-07-01T12:35:00.756Z,35.54
2018-07-01T12:37:29.391Z,33.57
2018-07-01T12:39:58.011Z,33.12
2018-07-01T12:42:26.712Z,32.31
2018-07-01T12:44:55.347Z,31.68
2018-07-01T12:47:24.011Z,30.62
2018-07-01T12:49:52.736Z,30.13
2018-07-01T12:52:21.516Z,30.27
2018-07-01T12:54:50.125Z,30.06
2018-07-01T12:57:18.782Z,31.28
2018-07-01T12:59:47.456Z,31.44
2018-07-01T13:02:16.107Z,31.57
2018-07-01T13:04:44.722Z,31.31
2018-07-01T13:07:13.376Z,32.18
2018-07-01T13:09:42.038Z,30.49
2018-07-01T13:12:10.689Z,29.96
2018-07-01T13:14:39.303Z,30.52
2018-07-01T13:17:07.983Z,30.43
2018-07-01T13:19:36.612Z,30.67
2018-07-01T13:22:05.583Z,31.03
2018-07-01T13:24:34.401Z,31.54
2018-07-01T13:27:03.166Z,30.43
2018-07-01T13:29:31.947Z,31.69
2018-07-01T13:32:00.639Z,32.52
2018-07-01T13:34:29.942Z,32.60
2018-07-01T13:36:58.619Z,33.58
2018-07-01T13:39:27.267Z,33.31
2018-07-01T13:41:57.900Z,33.20
2018-07-01T13:44:26.895Z,33.57
2018-07-01T13:46:55.607Z,34.29
2018-07-01T13:49:24.323Z,34.74
2018-07-01T13:51:53.157Z,35.13
2018-07-01T13:54:21.803Z,33.42
2018-07-01T13:56:50.563Z,33.52
2018-07-01T13:59:19.172Z,32.30
2018-07-01T14:01:47.942Z,32.11
2018-07-01T14:04:16.517Z,32.28
2018-07-01T14:06:45.305Z,31.70
2018-07-01T14:09:13.935Z,32.01
2018-07-01T14:11:42.659Z,32.36
2018-07-01T14:14:11.362Z,32.11
2018-07-01T14:16:40.158Z,33.01
2018-07-01T14:19:09.159Z,33.76
2018-07-01T14:21:38.083Z,33.69
2018-07-01T14:24:07.435Z,33.23
2018-07-01T14:26:36.114Z,33.67
2018-07-01T14:29:04.871Z,33.62
2018-07-01T14:31:33.702Z,33.20
2018-07-01T14:34:02.856Z,33.60
2018-07-01T14:36:32.301Z,34.04
2018-07-01T14:39:01.027Z,34.90
2018-07-01T14:41:29.759Z,34.46
2018-07-01T14:43:59.012Z,34.53
2018-07-01T14:46:29.498Z,33.28
2018-07-01T14:48:58.527Z,34.15
2018-07-01T14:51:28.340Z,34.47
2018-07-01T14:53:59.627Z,34.80
2018-07-01T14:56:29.419Z,33.97
2018-07-01T14:58:58.239Z,34.30
2018-07-01T15:01:26.956Z,34.55
2018-07-01T15:03:56.466Z,36.35
2018-07-01T15:06:25.204Z,35.24
2018-07-01T15:08:53.852Z,35.52
2018-07-01T15:11:22.556Z,36.27
2018-07-01T15:13:51.228Z,36.13
2018-07-01T15:16:19.946Z,36.08
2018-07-01T15:18:48.880Z,34.64
2018-07-01T15:21:17.575Z,33.23
2018-07-01T15:23:46.251Z,34.99
2018-07-01T15:26:15.585Z,35.76
2018-07-01T15:28:44.372Z,34.48
2018-07-01T15:31:13.161Z,34.98
2018-07-01T15:33:41.871Z,35.32
2018-07-01T15:36:10.554Z,35.75
2018-07-01T15:38:39.247Z,34.33
2018-07-01T15:41:08.323Z,33.71
2018-07-01T15:43:36.967Z,33.49
2018-07-01T15:46:06.275Z,34.06
2018-07-01T15:48:34.946Z,34.56
2018-07-01T15:51:03.790Z,35.32
2018-07-01T15:53:32.449Z,34.49
2018-07-01T15:56:01.134Z,34.54
2018-07-01T15:58:29.825Z,34.00
2018-07-01T16:00:58.479Z,34.12
2018-07-01T16:03:27.163Z,34.98
2018-07-01T16:05:55.853Z,35.66
2018-07-01T16:08:24.547Z,35.03
2018-07-01T16:10:53.158Z,35.16
2018-07-01T16:13:21.833Z,35.08
2018-07-01T16:15:50.510Z,35.84
2018-07-01T16:18:19.155Z,36.44
2018-07-01T16:20:48.155Z,37.03
2018-07-01T16:23:16.822Z,36.62
2018-07-01T16:25:50.969Z,36.42
2018-07-01T16:28:25.085Z,37.09
2018-07-01T16:30:53.773Z,36.84
2018-07-01T16:33:22.690Z,36.71
2018-07-01T16:35:51.327Z,36.84
2018-07-01T16:38:20.074Z,36.48
2018-07-01T16:40:48.746Z,35.18
2018-07-01T16:43:17.442Z,34.58
2018-07-01T16:45:46.175Z,34.62
2018-07-01T16:48:14.812Z,35.61
2018-07-01T16:50:43.476Z,35.29
2018-07-01T16:53:12.184Z,35.32
2018-07-01T16:55:41.303Z,34.29
2018-07-01T16:58:10.093Z,34.01
2018-07-01T17:00:39.445Z,32.39
2018-07-01T17:03:08.122Z,32.52
2018-07-01T17:05:36.942Z,32.76
2018-07-01T17:08:05.654Z,31.92
2018-07-01T17:10:34.598Z,32.10
2018-07-01T17:13:03.430Z,32.91
2018-07-01T17:15:32.051Z,33.97
2018-07-01T17:18:00.731Z,34.36
2018-07-01T17:20:29.448Z,33.84
2018-07-01T17:22:58.148Z,34.30
2018-07-01T17:25:26.787Z,34.52
2018-07-01T17:27:55.537Z,34.85
2018-07-01T17:30:24.367Z,34.55
2018-07-01T17:32:58.424Z,36.26
2018-07-01T17:35:27.232Z,37.42
2018-07-01T17:37:56.703Z,39.24
2018-07-01T17:40:25.411Z,40.63
2018-07-01T17:42:54.201Z,40.98
2018-07-01T17:45:22.863Z,41.59
2018-07-01T17:47:51.563Z,42.21
2018-07-01T17:50:20.257Z,42.60
2018-07-01T17:52:49.014Z,42.40
2018-07-01T17:55:17.844Z,42.22
2018-07-01T17:57:46.700Z,42.34
2018-07-01T18:00:15.367Z,42.57
2018-07-01T18:02:44.055Z,42.78
2018-07-01T18:05:13.289Z,42.79
2018-07-01T18:07:41.966Z,42.75
2018-07-01T18:10:10.846Z,42.68
2018-07-01T18:12:39.589Z,43.01
2018-07-01T18:15:08.325Z,42.95
2018-07-01T18:17:37.024Z,42.81
2018-07-01T18:20:05.910Z,42.85
2018-07-01T18:23:00.804Z,42.66
2018-07-01T18:25:09.840Z,42.24
2018-07-01T18:27:35.062Z,42.16
2018-07-01T18:30:00.637Z,42.45
2018-07-01T18:32:30.263Z,42.23
2018-07-01T18:34:58.949Z,41.82
2018-07-01T18:37:27.667Z,42.31
2018-07-01T18:39:56.382Z,42.34
2018-07-01T18:42:25.710Z,43.06
2018-07-01T18:44:54.457Z,42.93
2018-07-01T18:47:23.218Z,43.71
2018-07-01T18:49:51.919Z,43.78
2018-07-01T18:52:20.656Z,43.92
2018-07-01T18:54:49.776Z,44.14
2018-07-01T18:57:18.422Z,44.50
2018-07-01T18:59:47.157Z,44.37
2018-07-01T19:02:15.896Z,44.81
2018-07-01T19:04:44.566Z,44.36
2018-07-01T19:07:13.742Z,44.48
2018-07-01T19:09:43.042Z,44.75
2018-07-01T19:12:12.235Z,45.16
2018-07-01T19:14:41.431Z,45.29
2018-07-01T19:17:10.125Z,45.06
2018-07-01T19:19:39.030Z,45.26
2018-07-01T19:22:07.801Z,46.04
2018-07-01T19:24:36.501Z,46.46
2018-07-01T19:27:05.428Z,46.30
2018-07-01T19:29:34.165Z,46.14
2018-07-01T19:32:03.017Z,46.31
2018-07-01T19:34:31.791Z,48.36
2018-07-01T19:37:00.617Z,48.63
2018-07-01T19:39:29.482Z,47.52
2018-07-01T19:41:58.260Z,48.15
2018-07-01T19:44:28.043Z,48.49
2018-07-01T19:46:57.133Z,48.10
2018-07-01T19:49:25.916Z,47.54
2018-07-01T19:51:54.590Z,47.94
2018-07-01T19:54:23.339Z,48.08
2018-07-01T19:56:52.537Z,48.29
2018-07-01T19:59:21.205Z,48.47
2018-07-01T20:01:49.893Z,48.49
2018-07-01T20:04:18.540Z,48.64
2018-07-01T20:06:47.366Z,48.36
2018-07-01T20:09:16.179Z,48.49
2018-07-01T20:11:46.354Z,48.74
2018-07-01T20:14:15.112Z,49.70
2018-07-01T20:16:43.762Z,49.84
2018-07-01T20:19:12.464Z,49.87
2018-07-01T20:21:41.139Z,50.52
2018-07-01T20:24:09.905Z,50.26
2018-07-01T20:26:38.597Z,50.42
2018-07-01T20:29:07.283Z,51.20
2018-07-01T20:31:36.072Z,49.90
2018-07-01T20:34:04.903Z,50.01
2018-07-01T20:36:33.555Z,50.32
2018-07-01T20:39:02.232Z,50.67
2018-07-01T20:41:30.963Z,50.84
2018-07-01T20:43:59.877Z,51.16
2018-07-01T20:46:28.518Z,51.81
2018-07-01T20:48:57.221Z,51.97
2018-07-01T20:51:25.967Z,51.86
2018-07-01T20:53:54.703Z,52.05
2018-07-01T20:56:28.622Z,52.41
2018-07-01T20:58:57.549Z,52.95
2018-07-01T21:01:26.777Z,52.94
2018-07-01T21:03:55.507Z,53.25
2018-07-01T21:06:24.452Z,53.24
2018-07-01T21:08:53.215Z,53.14
2018-07-01T21:11:21.923Z,52.48
2018-07-01T21:13:50.671Z,51.69
2018-07-01T21:16:19.331Z,51.96
2018-07-01T21:18:48.067Z,52.09
2018-07-01T21:21:16.708Z,51.83
2018-07-01T21:23:45.403Z,52.13
2018-07-01T21:26:14.191Z,51.53
2018-07-01T21:28:43.038Z,51.88
2018-07-01T21:31:11.651Z,52.14
2018-07-01T21:33:40.356Z,52.60
2018-07-01T21:36:09.059Z,53.23
2018-07-01T21:38:37.868Z,53.60
2018-07-01T21:41:06.535Z,53.90
2018-07-01T21:43:35.219Z,53.95
2018-07-01T21:46:03.980Z,54.12
2018-07-01T21:48:32.684Z,54.44
2018-07-01T21:51:01.379Z,54.68
2018-07-01T21:53:30.037Z,54.91
2018-07-01T21:55:58.795Z,54.83
2018-07-01T21:58:27.478Z,54.61
2018-07-01T22:00:56.173Z,54.32
2018-07-01T22:03:24.844Z,54.26
2018-07-01T22:05:53.582Z,54.58
2018-07-01T22:08:22.309Z,54.63
2018-07-01T22:12:01.848Z,55.43
2018-07-01T22:14:34.684Z,56.18
2018-07-01T22:17:04.327Z,56.68
2018-07-01T22:19:33.422Z,57.08
2018-07-01T22:22:02.469Z,58.19
2018-07-01T22:24:32.410Z,58.55
2018-07-01T22:27:01.070Z,58.88
2018-07-01T22:29:29.688Z,59.12
2018-07-01T22:31:58.513Z,59.61
2018-07-01T22:34:27.165Z,59.79
2018-07-01T22:36:56.122Z,60.14
2018-07-01T22:39:25.787Z,60.44
2018-07-01T22:41:55.354Z,60.62
2018-07-01T22:44:24.020Z,60.68
2018-07-01T22:46:53.164Z,61.22
2018-07-01T22:49:21.867Z,61.00
2018-07-01T22:51:51.098Z,60.99
2018-07-01T22:54:19.889Z,61.58
2018-07-01T22:56:48.584Z,61.68
2018-07-01T22:59:17.279Z,62.16
2018-07-01T23:03:01.629Z,61.94
2018-07-01T23:05:30.611Z,62.52
2018-07-01T23:07:59.297Z,62.68
2018-07-01T23:10:28.756Z,63.20
2018-07-01T23:12:57.902Z,62.77
2018-07-01T23:15:26.568Z,63.12
2018-07-01T23:17:55.256Z,63.22
2018-07-01T23:20:23.864Z,63.61
2018-07-01T23:22:52.580Z,63.40
2018-07-01T23:25:21.230Z,63.45
2018-07-01T23:27:49.914Z,63.36
2018-07-01T23:30:18.594Z,63.77
2018-07-01T23:32:47.280Z,63.46
2018-07-01T23:35:15.891Z,63.79
2018-07-01T23:37:44.558Z,63.70
2018-07-01T23:40:13.264Z,64.51
2018-07-01T23:42:43.318Z,65.54
2018-07-01T23:45:15.066Z,65.73
2018-07-01T23:47:43.959Z,65.60
2018-07-01T23:50:12.603Z,65.56
2018-07-01T23:52:41.277Z,65.27
2018-07-01T23:55:10.193Z,64.70
2018-07-01T23:57:39.038Z,64.26
